Time;durP1;ratioP1;P1;durP2;ratioP2;P2;SDS_P1;SDS_P2;PMS_P1;PMS_P2;Temp;Humidity;BMP_temperature;BMP_pressure;BME280_temperature;BME280_humidity;BME280_pressure;Samples;Min_cycle;Max_cycle;Signal;HPM_P1;HPM_P2
2023/11/08 00:01:44;;;;;;;;;;;;;;;25.49;43.02;94449.41;5023081;28;9067;-65
2023/11/08 00:04:24;;;;;;;;;;;;;;;25.47;42.91;94447.13;5029101;28;8203;-55
2023/11/08 00:07:06;;;;;;;;;;;;;;;25.45;43.23;94449.66;5039358;28;7540;-56
2023/11/08 00:09:47;;;;;;;;;;;;;;;25.41;43.46;94438.88;5025242;28;7001;-55
2023/11/08 00:12:24;;;;;;;;;;;;;;;25.39;43.14;94440.66;5028560;28;9425;-56
2023/11/08 00:15:00;;;;;;;;;;;;;;;25.36;43.43;94434.16;5044159;28;7247;-56
2023/11/08 00:17:39;;;;;;;;;;;;;;;25.34;43.05;94436.66;5045499;28;8783;-56
2023/11/08 00:20:24;;;;;;;;;;;;;;;25.35;42.77;94443.69;5030762;28;8645;-56
2023/11/08 00:22:52;;;;;;;;;;;;;;;25.34;42.89;94442.16;5023634;28;7017;-55
2023/11/08 00:25:48;;;;;;;;;;;;;;;25.34;42.68;94444.16;5025678;28;7206;-56
2023/11/08 00:28:20;;;;;;;;;;;;;;;25.30;42.73;94444.44;5045408;28;7225;-56
2023/11/08 00:31:01;;;;;;;;;;;;;;;25.30;43.55;94438.19;5041826;28;7216;-56
2023/11/08 00:33:28;;;;;;;;;;;;;;;25.30;43.12;94438.19;5034209;28;7375;-56
2023/11/08 00:35:56;;;;;;;;;;;;;;;25.29;43.33;94447.72;5049915;28;7206;-56
2023/11/08 00:38:22;;;;;;;;;;;;;;;25.27;42.98;94447.47;5050211;28;7234;-56
2023/11/08 00:40:48;;;;;;;;;;;;;;;25.27;42.92;94447.47;5035374;28;9003;-56
2023/11/08 00:43:15;;;;;;;;;;;;;;;25.28;42.91;94452.47;5037350;28;6998;-56
2023/11/08 00:45:42;;;;;;;;;;;;;;;25.27;43.58;94441.97;5056178;28;7262;-56
2023/11/08 00:48:46;;;;;;;;;;;;;;;25.28;43.34;94446.19;5044507;28;6983;-56
2023/11/08 00:51:27;;;;;;;;;;;;;;;25.24;43.19;94442.97;5044473;28;9050;-56
2023/11/08 00:53:54;;;;;;;;;;;;;;;25.26;42.83;94443.22;5058788;28;7167;-56
2023/11/08 00:56:21;;;;;;;;;;;;;;;25.24;43.01;94443.72;5035402;28;7042;-56
2023/11/08 00:58:47;;;;;;;;;;;;;;;25.26;43.39;94451.47;5051121;28;7311;-56
2023/11/08 01:01:13;;;;;;;;;;;;;;;25.25;43.70;94452.72;5033310;28;8751;-56
2023/11/08 01:04:18;;;;;;;;;;;;;;;25.24;43.15;94451.97;5034483;28;7466;-56
2023/11/08 01:06:57;;;;;;;;;;;;;;;25.25;43.78;94458.97;5013066;28;7286;-56
2023/11/08 01:10:09;;;;;;;;;;;;;;;25.24;43.78;94451.22;5007122;28;8193;-55
2023/11/08 01:13:20;;;;;;;;;;;;;;;25.27;43.45;94455.72;5003003;28;9124;-59
2023/11/08 01:15:56;;;;;;;;;;;;;;;25.25;42.83;94453.47;4927732;29;7248;-60
2023/11/08 01:18:22;;;;;;;;;;;;;;;25.25;43.40;94458.25;4949951;28;7315;-60
2023/11/08 01:21:16;;;;;;;;;;;;;;;25.25;43.64;94464.47;4918476;28;7249;-59
2023/11/08 01:23:46;;;;;;;;;;;;;;;25.23;43.63;94449.72;4944085;28;7352;-59
2023/11/08 01:26:25;;;;;;;;;;;;;;;25.25;43.41;94452.72;4925728;29;7290;-59
2023/11/08 01:28:53;;;;;;;;;;;;;;;25.23;43.66;94447.72;4936343;29;7249;-60
2023/11/08 01:31:58;;;;;;;;;;;;;;;25.22;43.26;94451.75;4919147;29;7161;-60
2023/11/08 01:34:52;;;;;;;;;;;;;;;25.23;42.95;94452.47;4928157;29;7340;-60
2023/11/08 01:37:36;;;;;;;;;;;;;;;25.22;43.28;94448.22;4920537;29;7203;-59
2023/11/08 01:40:18;;;;;;;;;;;;;;;25.21;43.41;94443.97;4944586;28;8037;-60
2023/11/08 01:43:06;;;;;;;;;;;;;;;25.22;43.91;94456.50;4949251;28;7325;-59
2023/11/08 01:45:45;;;;;;;;;;;;;;;25.21;43.70;94446.72;4932517;28;7237;-60
2023/11/08 01:48:32;;;;;;;;;;;;;;;25.17;43.82;94436.00;4910360;29;7223;-59
2023/11/08 01:51:32;;;;;;;;;;;;;;;25.22;43.19;94439.97;4922387;28;7181;-60
2023/11/08 01:54:27;;;;;;;;;;;;;;;25.21;43.10;94441.97;5017958;28;7179;-59
2023/11/08 01:56:55;;;;;;;;;;;;;;;25.19;43.16;94447.22;4994909;28;7248;-59
2023/11/08 01:59:47;;;;;;;;;;;;;;;25.21;43.69;94446.72;5002894;28;8536;-59
2023/11/08 02:02:34;;;;;;;;;;;;;;;25.21;43.77;94446.72;5004496;28;7933;-59
2023/11/08 02:05:16;;;;;;;;;;;;;;;25.19;43.37;94446.47;5019015;28;6999;-59
2023/11/08 02:07:56;;;;;;;;;;;;;;;25.17;43.24;94438.75;5003733;28;7342;-60
2023/11/08 02:10:24;;;;;;;;;;;;;;;25.17;43.47;94440.75;5009786;28;8725;-60
2023/11/08 02:12:53;;;;;;;;;;;;;;;25.20;43.30;94448.00;5008209;28;8417;-59
2023/11/08 02:15:49;;;;;;;;;;;;;;;25.19;42.82;94441.72;5012631;28;7223;-59
2023/11/08 02:18:32;;;;;;;;;;;;;;;25.18;43.61;94437.50;4986247;28;9092;-59
2023/11/08 02:21:14;;;;;;;;;;;;;;;25.18;43.14;94434.00;4981201;28;7279;-60
2023/11/08 02:24:01;;;;;;;;;;;;;;;25.19;42.83;94438.22;4979907;28;8212;-60
2023/11/08 02:26:35;;;;;;;;;;;;;;;25.18;43.23;94437.50;4989270;28;8563;-60
2023/11/08 02:29:01;;;;;;;;;;;;;;;25.18;42.95;94432.00;4968977;28;7274;-60
2023/11/08 02:31:36;;;;;;;;;;;;;;;25.16;43.09;94436.50;4977324;28;9106;-60
2023/11/08 02:34:20;;;;;;;;;;;;;;;25.18;43.61;94434.00;4990675;28;9002;-60
2023/11/08 02:37:00;;;;;;;;;;;;;;;25.18;43.68;94428.47;4984651;28;9095;-60
2023/11/08 02:39:55;;;;;;;;;;;;;;;25.18;43.28;94434.75;4991527;28;7255;-59
2023/11/08 02:42:55;;;;;;;;;;;;;;;25.18;42.73;94431.25;4979666;28;7739;-60
2023/11/08 02:45:21;;;;;;;;;;;;;;;25.17;43.01;94432.47;4976389;28;9139;-59
2023/11/08 02:48:03;;;;;;;;;;;;;;;25.17;42.73;94429.72;4954138;28;8827;-59
2023/11/08 02:50:58;;;;;;;;;;;;;;;25.17;43.78;94424.22;4957412;28;7229;-59
2023/11/08 02:53:24;;;;;;;;;;;;;;;25.17;43.18;94432.47;4927337;29;7272;-59
2023/11/08 02:59:36;;;;;;;;;;;;;;;25.15;43.40;94421.97;4926160;29;7507;-60
2023/11/08 03:02:12;;;;;;;;;;;;;;;25.17;42.72;94413.22;4917280;29;7680;-59
2023/11/08 03:04:41;;;;;;;;;;;;;;;25.16;43.36;94422.75;4919090;28;9434;-59
2023/11/08 03:07:09;;;;;;;;;;;;;;;25.15;43.39;94415.72;4933032;28;7060;-60
2023/11/08 03:09:36;;;;;;;;;;;;;;;25.16;43.47;94418.00;4934851;28;9166;-60
2023/11/08 03:12:04;;;;;;;;;;;;;;;25.16;42.77;94414.47;4929673;28;9301;-60
2023/11/08 03:14:30;;;;;;;;;;;;;;;25.18;43.29;94425.72;4932368;28;9088;-60
2023/11/08 03:17:00;;;;;;;;;;;;;;;25.17;43.16;94426.97;4932478;28;8458;-59
2023/11/08 03:19:26;;;;;;;;;;;;;;;25.16;42.89;94422.75;4922586;28;8196;-60
2023/11/08 03:21:53;;;;;;;;;;;;;;;25.14;43.00;94417.72;4966144;28;7059;-60
2023/11/08 03:24:19;;;;;;;;;;;;;;;25.17;43.16;94418.72;4963510;28;7134;-59
2023/11/08 03:26:50;;;;;;;;;;;;;;;25.16;43.44;94422.75;4972202;28;6994;-59
2023/11/08 03:29:20;;;;;;;;;;;;;;;25.17;43.41;94435.22;4996580;28;7287;-60
2023/11/08 03:32:01;;;;;;;;;;;;;;;25.16;43.54;94437.25;5032841;28;7041;-65
2023/11/08 03:34:46;;;;;;;;;;;;;;;25.16;43.53;94442.00;5050609;28;7244;-65
2023/11/08 03:38:07;;;;;;;;;;;;;;;25.17;42.73;94443.50;5023463;28;7106;-65
2023/11/08 03:41:01;;;;;;;;;;;;;;;25.18;42.43;94442.25;4956795;28;7080;-65
2023/11/08 03:43:52;;;;;;;;;;;;;;;25.18;43.29;94442.25;4974765;28;7208;-65
2023/11/08 03:46:31;;;;;;;;;;;;;;;25.14;43.09;94437.00;4997855;28;9093;-64
2023/11/08 03:49:02;;;;;;;;;;;;;;;25.17;42.57;94446.25;4981078;28;7528;-65
2023/11/08 03:52:02;;;;;;;;;;;;;;;25.16;43.23;94445.50;4959844;28;7044;-65
2023/11/08 03:54:45;;;;;;;;;;;;;;;25.16;43.45;94445.50;4919252;29;7243;-65
2023/11/08 03:57:20;;;;;;;;;;;;;;;25.16;43.42;94440.00;4915819;29;7337;-64
2023/11/08 04:00:36;;;;;;;;;;;;;;;25.15;42.77;94438.50;4906670;29;7342;-65
2023/11/08 04:03:06;;;;;;;;;;;;;;;25.16;43.39;94442.00;4918262;29;7090;-65
2023/11/08 04:05:45;;;;;;;;;;;;;;;25.14;43.34;94439.75;4925288;28;7053;-65
2023/11/08 04:08:11;;;;;;;;;;;;;;;25.15;43.47;94443.25;4926910;29;7296;-65
2023/11/08 04:10:38;;;;;;;;;;;;;;;25.15;43.26;94444.00;4917144;28;7427;-65
2023/11/08 04:13:16;;;;;;;;;;;;;;;25.15;43.00;94444.00;4941281;28;7237;-65
2023/11/08 04:15:59;;;;;;;;;;;;;;;25.16;43.07;94451.03;4954241;28;7354;-65
2023/11/08 04:18:59;;;;;;;;;;;;;;;25.16;43.16;94442.00;4954963;28;7249;-65
2023/11/08 04:21:44;;;;;;;;;;;;;;;25.17;42.50;94449.00;4969890;28;7564;-65
2023/11/08 04:24:10;;;;;;;;;;;;;;;25.16;42.58;94453.00;4962808;28;7171;-65
2023/11/08 04:27:23;;;;;;;;;;;;;;;25.15;42.33;94443.25;4975225;28;7401;-65
2023/11/08 04:29:58;;;;;;;;;;;;;;;25.16;43.33;94451.03;4902945;29;7376;-65
2023/11/08 04:32:40;;;;;;;;;;;;;;;25.14;42.82;94442.50;4934758;29;9253;-64
2023/11/08 04:35:07;;;;;;;;;;;;;;;25.16;42.57;94445.50;4933666;29;10028;-64
2023/11/08 04:37:53;;;;;;;;;;;;;;;25.14;43.04;94448.00;4919509;29;9875;-64
2023/11/08 04:40:54;;;;;;;;;;;;;;;25.14;43.43;94452.78;4916947;29;7318;-65
2023/11/08 04:43:37;;;;;;;;;;;;;;;25.16;42.50;94442.75;4885754;29;9110;-61
2023/11/08 04:46:05;;;;;;;;;;;;;;;25.16;42.51;94451.03;4896524;29;9124;-61
2023/11/08 04:48:47;;;;;;;;;;;;;;;25.14;43.01;94448.00;4890536;29;6988;-61
2023/11/08 04:51:23;;;;;;;;;;;;;;;25.15;43.18;94455.00;4879310;29;7243;-61
2023/11/08 04:53:51;;;;;;;;;;;;;;;25.12;43.44;94447.03;4897624;29;7454;-61
2023/11/08 04:56:22;;;;;;;;;;;;;;;25.14;42.99;94450.75;4878355;29;7203;-61
2023/11/08 04:59:22;;;;;;;;;;;;;;;25.15;42.49;94451.50;4902742;29;8766;-62
2023/11/08 05:01:48;;;;;;;;;;;;;;;25.13;43.15;94445.75;4876966;29;7571;-62
2023/11/08 05:04:16;;;;;;;;;;;;;;;25.14;42.81;94448.00;4863706;29;7240;-62
2023/11/08 05:06:42;;;;;;;;;;;;;;;25.12;43.20;94436.03;4891324;29;8195;-62
2023/11/08 05:09:08;;;;;;;;;;;;;;;25.13;42.74;94443.00;4913243;29;7363;-61
2023/11/08 05:12:30;;;;;;;;;;;;;;;25.17;43.20;94446.25;4914258;29;9066;-62
2023/11/08 05:15:00;;;;;;;;;;;;;;;25.18;42.76;94450.50;4889550;29;7082;-62
2023/11/08 05:17:38;;;;;;;;;;;;;;;25.16;42.63;94451.03;4913114;29;9349;-61
2023/11/08 05:20:18;;;;;;;;;;;;;;;25.16;42.86;94447.50;4925293;29;9106;-61
2023/11/08 05:22:44;;;;;;;;;;;;;;;25.15;42.50;94444.00;4897493;29;7289;-62
2023/11/08 05:25:12;;;;;;;;;;;;;;;25.17;42.83;94446.25;4899183;29;7342;-62
2023/11/08 05:27:38;;;;;;;;;;;;;;;25.19;43.03;94449.22;4902387;29;7019;-61
2023/11/08 05:30:11;;;;;;;;;;;;;;;25.18;42.54;94443.00;4904986;29;6894;-61
2023/11/08 05:32:39;;;;;;;;;;;;;;;25.18;43.43;94437.50;4900318;29;7139;-61
2023/11/08 05:35:20;;;;;;;;;;;;;;;25.18;43.43;94443.00;4901803;29;7069;-61
2023/11/08 05:37:57;;;;;;;;;;;;;;;25.18;42.71;94437.50;4953121;28;7282;-61
2023/11/08 05:40:35;;;;;;;;;;;;;;;25.16;43.36;94439.25;4963283;28;7184;-61
2023/11/08 05:43:05;;;;;;;;;;;;;;;25.17;43.04;94436.00;4969818;28;7147;-61
2023/11/08 05:45:40;;;;;;;;;;;;;;;25.17;43.49;94446.25;4952983;28;8849;-62
2023/11/08 05:48:18;;;;;;;;;;;;;;;25.17;43.17;94440.75;4977572;28;8979;-61
2023/11/08 05:51:10;;;;;;;;;;;;;;;25.18;43.50;94447.75;5041896;28;7058;-61
2023/11/08 05:53:42;;;;;;;;;;;;;;;25.24;42.35;94445.72;5044727;28;8787;-59
2023/11/08 05:56:21;;;;;;;;;;;;;;;25.25;42.35;94441.72;5041181;28;9199;-59
2023/11/08 05:58:47;;;;;;;;;;;;;;;25.26;42.76;94454.97;5041088;28;7119;-59
2023/11/08 06:01:26;;;;;;;;;;;;;;;25.25;42.55;94456.22;5036125;28;7018;-60
2023/11/08 06:04:13;;;;;;;;;;;;;;;25.24;43.01;94459.47;5054210;28;9332;-59
2023/11/08 06:06:40;;;;;;;;;;;;;;;25.22;42.95;94448.22;5029295;28;7001;-59
2023/11/08 06:09:34;;;;;;;;;;;;;;;25.22;42.28;94457.25;5049760;28;7000;-60
2023/11/08 06:12:05;;;;;;;;;;;;;;;25.19;42.35;94461.00;5044399;28;6994;-59
2023/11/08 06:14:41;;;;;;;;;;;;;;;25.18;42.85;94458.75;5040927;28;7314;-60
2023/11/08 06:17:23;;;;;;;;;;;;;;;25.23;42.67;94461.47;5041156;28;9089;-59
2023/11/08 06:20:19;;;;;;;;;;;;;;;25.23;43.07;94460.72;5045013;28;8926;-59
2023/11/08 06:23:34;;;;;;;;;;;;;;;25.27;42.28;94467.47;5045058;28;7280;-59
2023/11/08 06:26:12;;;;;;;;;;;;;;;25.32;42.57;94469.47;5049833;28;7065;-60
2023/11/08 06:28:39;;;;;;;;;;;;;;;25.35;42.14;94468.44;5045374;28;9094;-59
2023/11/08 06:31:42;;;;;;;;;;;;;;;25.38;41.40;94469.44;5031945;28;7307;-59
2023/11/08 06:34:14;;;;;;;;;;;;;;;25.36;41.99;94469.19;5057098;28;8842;-60
2023/11/08 06:36:41;;;;;;;;;;;;;;;25.28;41.97;94466.22;5055570;28;9076;-60
2023/11/08 06:39:12;;;;;;;;;;;;;;;25.30;41.60;94469.22;5039205;28;7258;-60
2023/11/08 06:41:38;;;;;;;;;;;;;;;25.33;41.78;94472.97;5042192;28;7398;-60
2023/11/08 06:44:05;;;;;;;;;;;;;;;25.28;42.07;94462.72;5043940;28;7124;-60
2023/11/08 06:46:31;;;;;;;;;;;;;;;25.31;41.71;94472.72;5048782;28;9098;-60
2023/11/08 06:48:57;;;;;;;;;;;;;;;25.31;42.11;94469.97;5029780;28;7137;-60
2023/11/08 06:51:29;;;;;;;;;;;;;;;25.39;42.21;94468.94;5044096;28;7510;-60
2023/11/08 06:54:15;;;;;;;;;;;;;;;25.34;42.05;94469.69;5037788;28;7219;-59
2023/11/08 06:56:53;;;;;;;;;;;;;;;25.32;42.24;94468.69;5039012;28;7305;-60
2023/11/08 06:59:32;;;;;;;;;;;;;;;25.29;42.27;94475.25;5041534;28;9289;-60
2023/11/08 07:01:58;;;;;;;;;;;;;;;25.29;42.10;94480.75;5042150;28;7207;-59
2023/11/08 07:04:40;;;;;;;;;;;;;;;25.25;41.63;94489.25;5040660;28;9171;-59
2023/11/08 07:07:15;;;;;;;;;;;;;;;25.31;42.13;94497.50;5044749;28;7334;-59
2023/11/08 07:09:47;;;;;;;;;;;;;;;25.37;41.85;94492.72;5040512;28;7218;-59
2023/11/08 07:12:29;;;;;;;;;;;;;;;25.36;41.78;94491.22;5038434;28;8070;-59
2023/11/08 07:14:58;;;;;;;;;;;;;;;25.32;41.59;94496.22;5049130;28;7255;-59
2023/11/08 07:17:29;;;;;;;;;;;;;;;25.30;42.35;94496.00;5034026;28;9136;-59
2023/11/08 07:20:10;;;;;;;;;;;;;;;25.26;41.53;94495.50;5035805;28;6996;-59
2023/11/08 07:22:38;;;;;;;;;;;;;;;25.24;42.25;94501.53;5028590;28;7073;-59
2023/11/08 07:25:57;;;;;;;;;;;;;;;25.22;42.61;94504.03;5026743;28;7001;-59
2023/11/08 07:28:24;;;;;;;;;;;;;;;25.21;41.84;94496.28;4932456;29;7008;-59
2023/11/08 07:31:12;;;;;;;;;;;;;;;25.23;42.36;94508.28;4931448;29;7173;-59
2023/11/08 07:33:38;;;;;;;;;;;;;;;25.22;42.69;94506.03;4910608;29;6992;-59
2023/11/08 07:36:05;;;;;;;;;;;;;;;25.19;43.70;94498.78;4930891;29;7016;-59
2023/11/08 07:38:33;;;;;;;;;;;;;;;25.21;43.53;94508.03;4914390;29;7166;-59
2023/11/08 07:41:01;;;;;;;;;;;;;;;25.29;42.52;94508.28;4927057;29;8627;-59
2023/11/08 07:43:52;;;;;;;;;;;;;;;25.27;41.76;94514.25;4912781;29;9673;-58
2023/11/08 07:46:38;;;;;;;;;;;;;;;25.31;41.71;94508.50;4918142;29;9057;-59
2023/11/08 07:49:04;;;;;;;;;;;;;;;25.28;41.17;94507.53;4918064;29;7877;-59
2023/11/08 07:52:00;;;;;;;;;;;;;;;25.27;41.72;94505.28;4933267;29;7289;-59
2023/11/08 07:54:42;;;;;;;;;;;;;;;25.25;42.34;94516.78;4888085;29;9143;-59
2023/11/08 07:57:13;;;;;;;;;;;;;;;25.25;42.05;94508.53;4887886;29;6995;-58
2023/11/08 07:59:50;;;;;;;;;;;;;;;25.24;42.12;94506.28;4885500;29;7139;-58
2023/11/08 08:06:10;;;;;;;;;;;;;;;25.25;42.93;94508.53;4964121;28;9466;-59
2023/11/08 08:08:40;;;;;;;;;;;;;;;25.26;42.34;94509.28;4965543;28;7026;-58
2023/11/08 08:11:25;;;;;;;;;;;;;;;25.26;42.10;94499.03;4957023;28;7101;-59
2023/11/08 08:14:02;;;;;;;;;;;;;;;25.26;42.97;94507.28;4981343;28;7328;-56
2023/11/08 08:20:34;;;;;;;;;;;;;;;25.37;42.42;94526.50;4914676;29;7278;-56
2023/11/08 08:23:20;;;;;;;;;;;;;;;25.45;42.58;94520.50;4914131;29;8722;-56
2023/11/08 08:26:00;;;;;;;;;;;;;;;25.48;41.15;94525.00;4897643;29;7085;-56
2023/11/08 08:28:35;;;;;;;;;;;;;;;25.46;41.29;94522.00;4912453;29;7457;-56
2023/11/08 08:31:11;;;;;;;;;;;;;;;25.51;40.38;94526.75;4930087;28;7373;-56
2023/11/08 08:33:51;;;;;;;;;;;;;;;25.52;40.13;94526.22;4978658;28;8300;-56
2023/11/08 08:36:49;;;;;;;;;;;;;;;25.55;39.05;94525.22;4978971;28;7041;-56
2023/11/08 08:39:17;;;;;;;;;;;;;;;25.53;39.20;94516.72;4981212;28;7170;-56
2023/11/08 08:41:50;;;;;;;;;;;;;;;25.59;39.38;94522.19;4959051;28;7033;-56
2023/11/08 08:44:25;;;;;;;;;;;;;;;25.61;39.41;94516.94;4971334;28;9013;-56
2023/11/08 08:47:05;;;;;;;;;;;;;;;25.60;40.20;94520.94;4979097;28;7250;-56
2023/11/08 08:49:40;;;;;;;;;;;;;;;25.63;39.78;94522.69;4976407;28;7275;-56
2023/11/08 08:52:21;;;;;;;;;;;;;;;25.66;39.35;94522.44;4985359;28;7230;-56
2023/11/08 08:55:10;;;;;;;;;;;;;;;25.67;39.88;94531.41;4974873;28;7270;-56
2023/11/08 08:57:52;;;;;;;;;;;;;;;25.68;39.96;94530.16;5033296;28;8378;-56
2023/11/08 09:00:33;;;;;;;;;;;;;;;25.69;40.15;94537.91;5042019;28;9473;-56
2023/11/08 09:03:26;;;;;;;;;;;;;;;25.69;39.77;94529.66;5055248;28;7056;-56
2023/11/08 09:05:56;;;;;;;;;;;;;;;25.72;40.08;94525.13;5038905;28;8994;-56
2023/11/08 09:08:22;;;;;;;;;;;;;;;25.72;39.73;94528.66;5046044;28;8937;-56
2023/11/08 09:10:48;;;;;;;;;;;;;;;25.71;40.28;94520.91;5059914;28;7225;-56
2023/11/08 09:13:16;;;;;;;;;;;;;;;25.75;40.33;94526.88;5045806;28;7353;-56
2023/11/08 09:15:42;;;;;;;;;;;;;;;25.76;40.11;94529.13;5033956;28;9241;-56
2023/11/08 09:18:08;;;;;;;;;;;;;;;25.75;39.67;94527.63;5046635;28;9170;-56
2023/11/08 09:20:34;;;;;;;;;;;;;;;25.78;39.93;94534.13;5023856;28;7371;-56
2023/11/08 09:23:20;;;;;;;;;;;;;;;25.77;40.19;94530.63;5034229;28;9072;-56
2023/11/08 09:25:46;;;;;;;;;;;;;;;25.77;40.64;94530.63;5043082;28;7250;-56
2023/11/08 09:28:12;;;;;;;;;;;;;;;25.78;40.17;94531.38;5035624;28;6989;-56
2023/11/08 09:30:46;;;;;;;;;;;;;;;25.81;40.82;94544.88;5019805;28;7361;-56
2023/11/08 09:33:12;;;;;;;;;;;;;;;25.80;40.59;94548.88;5041739;28;7216;-57
2023/11/08 09:35:41;;;;;;;;;;;;;;;25.83;40.61;94547.13;5044859;28;7273;-57
2023/11/08 09:38:07;;;;;;;;;;;;;;;25.82;40.70;94548.38;5034370;28;7247;-57
2023/11/08 09:40:42;;;;;;;;;;;;;;;25.81;40.23;94547.66;5030959;28;6973;-57
2023/11/08 09:43:12;;;;;;;;;;;;;;;25.83;40.89;94550.63;5049192;28;6998;-57
2023/11/08 09:45:59;;;;;;;;;;;;;;;25.85;40.12;94550.88;5035774;28;7147;-55
2023/11/08 09:48:44;;;;;;;;;;;;;;;25.85;40.48;94548.13;5041307;28;7296;-55
2023/11/08 09:51:16;;;;;;;;;;;;;;;25.87;40.73;94547.59;5049809;28;7113;-55
2023/11/08 09:53:43;;;;;;;;;;;;;;;25.86;41.04;94551.63;5037876;28;9653;-55
2023/11/08 09:56:13;;;;;;;;;;;;;;;25.86;41.23;94555.13;5031102;28;9124;-55
2023/11/08 09:58:41;;;;;;;;;;;;;;;25.83;40.63;94542.38;5036104;28;7516;-55
2023/11/08 10:01:16;;;;;;;;;;;;;;;25.85;41.24;94539.84;5038179;28;7264;-54
2023/11/08 10:03:52;;;;;;;;;;;;;;;25.88;40.36;94540.84;5027457;28;9098;-55
2023/11/08 10:06:19;;;;;;;;;;;;;;;25.87;41.05;94533.81;5036443;28;9071;-55
2023/11/08 10:08:49;;;;;;;;;;;;;;;25.90;40.40;94544.56;5029958;28;7236;-55
2023/11/08 10:11:20;;;;;;;;;;;;;;;25.91;40.65;94534.31;5026703;28;9092;-55
2023/11/08 10:13:54;;;;;;;;;;;;;;;25.90;41.25;94528.03;5027950;28;7257;-55
2023/11/08 10:16:21;;;;;;;;;;;;;;;25.90;40.59;94530.78;5046005;28;7071;-55
2023/11/08 10:18:55;;;;;;;;;;;;;;;25.89;41.20;94521.03;5027167;28;7274;-55
2023/11/08 10:21:36;;;;;;;;;;;;;;;25.90;41.07;94519.03;5035258;28;7273;-55
2023/11/08 10:24:17;;;;;;;;;;;;;;;25.91;41.53;94513.00;5045350;28;7381;-55
2023/11/08 10:26:52;;;;;;;;;;;;;;;25.91;40.95;94513.00;5040283;28;8723;-55
2023/11/08 10:29:25;;;;;;;;;;;;;;;25.96;41.19;94512.25;5024319;28;7161;-55
2023/11/08 10:32:19;;;;;;;;;;;;;;;25.94;41.44;94500.97;5039489;28;9686;-60
2023/11/08 10:34:47;;;;;;;;;;;;;;;25.96;41.60;94500.47;5025234;28;8842;-60
2023/11/08 10:37:24;;;;;;;;;;;;;;;25.95;41.28;94505.22;5034664;28;9085;-60
2023/11/08 10:39:51;;;;;;;;;;;;;;;25.95;41.74;94496.94;5027465;28;7523;-60
2023/11/08 10:42:25;;;;;;;;;;;;;;;25.94;42.62;94495.47;5034673;28;7327;-60
2023/11/08 10:44:56;;;;;;;;;;;;;;;25.90;43.32;94489.47;5032894;28;6989;-60
2023/11/08 10:47:36;;;;;;;;;;;;;;;25.90;42.73;94497.72;5036372;28;8703;-60
2023/11/08 10:50:28;;;;;;;;;;;;;;;25.95;42.05;94491.44;5043546;28;9094;-60
2023/11/08 10:53:47;;;;;;;;;;;;;;;25.96;42.68;94492.94;5026874;28;7041;-60
2023/11/08 10:56:29;;;;;;;;;;;;;;;25.97;41.90;94483.41;4955766;28;7244;-60
2023/11/08 10:58:58;;;;;;;;;;;;;;;25.97;42.66;94485.41;4957439;28;7447;-60
2023/11/08 11:01:56;;;;;;;;;;;;;;;25.96;42.16;94478.41;4939484;28;6975;-60
2023/11/08 11:04:35;;;;;;;;;;;;;;;25.93;42.77;94468.41;4897054;29;9149;-60
2023/11/08 11:07:01;;;;;;;;;;;;;;;25.99;42.43;94471.91;4899964;29;7227;-60
2023/11/08 11:09:38;;;;;;;;;;;;;;;26.01;42.33;94466.63;4892998;29;7081;-60
2023/11/08 11:12:16;;;;;;;;;;;;;;;26.03;42.04;94467.56;4893317;29;7253;-60
2023/11/08 11:14:56;;;;;;;;;;;;;;;26.01;41.53;94461.84;4892691;29;7204;-60
2023/11/08 11:17:49;;;;;;;;;;;;;;;26.03;41.50;94464.09;4885358;29;8808;-60
2023/11/08 11:20:34;;;;;;;;;;;;;;;26.04;41.67;94469.09;4884425;29;7932;-60
2023/11/08 11:23:34;;;;;;;;;;;;;;;26.01;41.70;94467.34;4897298;29;8646;-60
2023/11/08 11:26:47;;;;;;;;;;;;;;;26.05;41.29;94459.56;4904813;29;7381;-60
2023/11/08 11:29:17;;;;;;;;;;;;;;;26.05;40.90;94447.78;4896145;29;7195;-60
2023/11/08 11:32:20;;;;;;;;;;;;;;;26.09;41.40;94451.78;4927286;28;9467;-60
2023/11/08 11:34:58;;;;;;;;;;;;;;;26.09;41.08;94446.28;4980349;28;7250;-60
2023/11/08 11:37:37;;;;;;;;;;;;;;;26.12;41.02;94442.47;4978769;28;7438;-60
2023/11/08 11:40:34;;;;;;;;;;;;;;;26.15;41.19;94446.97;4983949;28;7813;-60
2023/11/08 11:43:32;;;;;;;;;;;;;;;26.17;41.29;94444.47;5047791;28;7245;-65
2023/11/08 11:46:03;;;;;;;;;;;;;;;26.13;41.68;94438.47;5035454;28;7249;-65
2023/11/08 11:48:34;;;;;;;;;;;;;;;26.14;41.05;94431.69;5032544;28;7241;-65
2023/11/08 11:51:12;;;;;;;;;;;;;;;26.14;41.32;94415.16;5042885;28;7067;-65
2023/11/08 11:53:48;;;;;;;;;;;;;;;26.16;41.21;94417.41;5027568;28;7429;-65
2023/11/08 11:56:41;;;;;;;;;;;;;;;26.16;41.84;94406.38;5034950;28;9050;-65
2023/11/08 11:59:35;;;;;;;;;;;;;;;26.16;41.92;94409.88;5041143;28;7877;-66
2023/11/08 12:02:10;;;;;;;;;;;;;;;26.19;41.57;94404.63;4994123;28;9834;-65
2023/11/08 12:05:07;;;;;;;;;;;;;;;26.19;41.97;94396.34;5010531;28;6954;-65
2023/11/08 12:07:58;;;;;;;;;;;;;;;26.22;42.10;94398.81;4957909;28;7097;-65
2023/11/08 12:10:29;;;;;;;;;;;;;;;26.19;41.98;94393.59;4955868;28;7244;-65
2023/11/08 12:13:04;;;;;;;;;;;;;;;26.22;41.36;94393.28;4971497;28;9297;-65
2023/11/08 12:15:40;;;;;;;;;;;;;;;26.26;41.41;94395.75;4967696;28;7236;-65
2023/11/08 12:18:17;;;;;;;;;;;;;;;26.27;41.85;94389.75;4967233;28;7311;-66
2023/11/08 12:21:04;;;;;;;;;;;;;;;26.28;41.60;94384.97;4968687;28;9070;-65
2023/11/08 12:23:49;;;;;;;;;;;;;;;26.29;41.52;94387.22;4969549;28;6971;-65
2023/11/08 12:26:31;;;;;;;;;;;;;;;26.32;41.72;94388.22;4968704;28;9114;-65
2023/11/08 12:29:02;;;;;;;;;;;;;;;26.31;41.60;94373.66;4970192;28;7223;-65
2023/11/08 12:31:47;;;;;;;;;;;;;;;26.37;41.40;94379.88;4969929;28;8667;-65
2023/11/08 12:34:25;;;;;;;;;;;;;;;26.41;41.76;94374.81;4955106;28;7215;-65
2023/11/08 12:36:54;;;;;;;;;;;;;;;26.41;41.12;94365.78;4964956;28;8760;-65
2023/11/08 12:39:28;;;;;;;;;;;;;;;26.44;41.55;94353.72;4964330;28;7279;-65
2023/11/08 12:41:58;;;;;;;;;;;;;;;26.43;41.73;94350.22;4955971;28;7138;-65
2023/11/08 12:44:52;;;;;;;;;;;;;;;26.48;41.65;94363.22;5007807;28;8814;-64
2023/11/08 12:47:26;;;;;;;;;;;;;;;26.50;41.82;94354.41;5042586;28;6926;-65
2023/11/08 12:50:13;;;;;;;;;;;;;;;26.53;41.63;94345.13;5020884;28;7303;-66
2023/11/08 12:52:39;;;;;;;;;;;;;;;26.54;41.81;94341.81;5035007;28;7348;-61
2023/11/08 12:55:11;;;;;;;;;;;;;;;26.58;41.44;94342.28;5037980;28;7247;-60
2023/11/08 12:57:50;;;;;;;;;;;;;;;26.52;42.33;94338.84;5039180;28;7339;-61
2023/11/08 13:00:40;;;;;;;;;;;;;;;26.64;41.48;94342.97;5031640;28;7329;-61
2023/11/08 13:03:20;;;;;;;;;;;;;;;26.78;41.70;94330.03;5039942;28;9095;-60
2023/11/08 13:06:18;;;;;;;;;;;;;;;26.86;41.31;94325.44;5027458;28;9272;-60
2023/11/08 13:09:02;;;;;;;;;;;;;;;26.84;41.21;94328.72;4981059;28;7200;-60
2023/11/08 13:11:39;;;;;;;;;;;;;;;26.88;41.39;94328.44;4964129;28;7250;-60
2023/11/08 13:14:06;;;;;;;;;;;;;;;26.97;41.20;94314.25;4990268;28;8906;-60
2023/11/08 13:16:56;;;;;;;;;;;;;;;27.04;41.11;94308.13;4983414;28;8756;-60
2023/11/08 13:19:23;;;;;;;;;;;;;;;27.09;41.14;94306.56;4995746;28;7355;-60
2023/11/08 13:22:10;;;;;;;;;;;;;;;27.04;41.15;94302.59;4989765;28;8161;-60
2023/11/08 13:24:37;;;;;;;;;;;;;;;27.06;41.84;94302.84;4977615;28;7242;-60
2023/11/08 13:27:23;;;;;;;;;;;;;;;27.09;40.98;94303.81;4994067;28;8686;-60
2023/11/08 13:29:51;;;;;;;;;;;;;;;27.08;41.28;94307.84;4972669;28;7079;-59
2023/11/08 13:32:41;;;;;;;;;;;;;;;27.05;41.41;94300.59;4976424;28;8758;-60
2023/11/08 13:35:22;;;;;;;;;;;;;;;27.09;41.26;94301.03;4982406;28;7260;-60
2023/11/08 13:37:53;;;;;;;;;;;;;;;27.11;41.27;94298.50;4990594;28;9063;-60
2023/11/08 13:40:19;;;;;;;;;;;;;;;27.12;41.54;94302.78;4991704;28;7265;-60
2023/11/08 13:43:00;;;;;;;;;;;;;;;27.14;41.47;94298.22;4965583;28;7693;-60
2023/11/08 13:45:26;;;;;;;;;;;;;;;27.16;41.28;94297.69;5022380;28;7394;-60
2023/11/08 13:47:56;;;;;;;;;;;;;;;27.19;41.69;94293.88;5030521;28;7235;-60
2023/11/08 13:50:43;;;;;;;;;;;;;;;27.22;41.46;94279.03;5054085;28;7271;-60
2023/11/08 13:53:09;;;;;;;;;;;;;;;27.18;41.36;94276.56;5022799;28;7342;-60
2023/11/08 13:55:36;;;;;;;;;;;;;;;27.22;41.43;94284.53;5028466;28;7009;-60
2023/11/08 13:58:04;;;;;;;;;;;;;;;27.25;41.54;94281.47;5037521;28;7000;-60
2023/11/08 14:00:33;;;;;;;;;;;;;;;27.27;41.48;94270.66;5038678;28;8444;-60
2023/11/08 14:03:03;;;;;;;;;;;;;;;27.29;41.12;94276.41;5023819;28;7080;-52
2023/11/08 14:05:31;;;;;;;;;;;;;;;27.29;41.34;94268.13;5023290;28;7269;-53
2023/11/08 14:08:01;;;;;;;;;;;;;;;27.31;41.26;94268.34;5031127;28;6997;-53